Emma, Missouri
Current Conditions -  °F | °C
As of 4:08 PM on Sunday 23 Nov 2014 (Local Time) from KSZL Reporting Station
Overcast Overcast  
Wind Chill: 55°   Ceiling: 1500
Heat Index: 55°   Visibility: 10mi
Dew Point: 55°   Wind: 7mph
Humidity: 100%   Direction: 190°S
Pressure: 29.32"   Gusts: NA
Location:  38.97°N, 93.49°W
Report Text: KSZL 232208Z AUTO 19006KT 10SM SCT004 OVC015 13/13 A2932 RMK AO2 CIG 012V017
Loading
Personal Weather Stations






























Interactive Weather Map New forecast layout! Learn more

10-Day Weather Forecast

Advertisements
Track Severe Weather on mobile